sensor_id;sensor_type;location;lat;lon;timestamp;temperature;humidity
20366;DHT22;10341;49.894;8.822;2023-04-03T00:01:47;3.80;99.90
20366;DHT22;10341;49.894;8.822;2023-04-03T00:07:06;3.70;99.90
20366;DHT22;10341;49.894;8.822;2023-04-03T00:12:26;3.60;99.90
20366;DHT22;10341;49.894;8.822;2023-04-03T00:17:45;3.50;99.90
20366;DHT22;10341;49.894;8.822;2023-04-03T00:23:05;3.30;99.90
20366;DHT22;10341;49.894;8.822;2023-04-03T00:28:24;3.20;99.90
20366;DHT22;10341;49.894;8.822;2023-04-03T00:33:44;3.10;99.90
20366;DHT22;10341;49.894;8.822;2023-04-03T00:39:04;2.90;99.90
20366;DHT22;10341;49.894;8.822;2023-04-03T00:49:52;2.60;99.90
20366;DHT22;10341;49.894;8.822;2023-04-03T00:55:12;2.60;99.90
20366;DHT22;10341;49.894;8.822;2023-04-03T01:00:34;2.50;99.90
20366;DHT22;10341;49.894;8.822;2023-04-03T01:05:55;2.40;99.90
20366;DHT22;10341;49.894;8.822;2023-04-03T01:11:14;2.30;99.90
20366;DHT22;10341;49.894;8.822;2023-04-03T01:16:34;2.40;99.90
20366;DHT22;10341;49.894;8.822;2023-04-03T01:22:21;2.50;99.90
20366;DHT22;10341;49.894;8.822;2023-04-03T01:27:44;2.50;99.90
20366;DHT22;10341;49.894;8.822;2023-04-03T01:33:03;2.50;99.90
20366;DHT22;10341;49.894;8.822;2023-04-03T01:38:24;2.60;99.90
20366;DHT22;10341;49.894;8.822;2023-04-03T01:43:44;2.60;99.90
20366;DHT22;10341;49.894;8.822;2023-04-03T01:49:04;2.60;99.90
20366;DHT22;10341;49.894;8.822;2023-04-03T01:54:24;2.80;99.90
20366;DHT22;10341;49.894;8.822;2023-04-03T01:59:43;2.80;99.90
20366;DHT22;10341;49.894;8.822;2023-04-03T02:05:03;2.80;99.90
20366;DHT22;10341;49.894;8.822;2023-04-03T02:10:22;2.80;99.90
20366;DHT22;10341;49.894;8.822;2023-04-03T02:15:42;2.80;99.90
20366;DHT22;10341;49.894;8.822;2023-04-03T02:21:01;2.80;99.90
20366;DHT22;10341;49.894;8.822;2023-04-03T02:26:21;2.80;99.90
20366;DHT22;10341;49.894;8.822;2023-04-03T02:31:40;2.80;99.90
20366;DHT22;10341;49.894;8.822;2023-04-03T02:37:00;2.80;99.90
20366;DHT22;10341;49.894;8.822;2023-04-03T02:42:19;2.80;99.90
20366;DHT22;10341;49.894;8.822;2023-04-03T02:47:39;2.80;99.90
20366;DHT22;10341;49.894;8.822;2023-04-03T02:52:58;2.80;99.90
20366;DHT22;10341;49.894;8.822;2023-04-03T02:58:18;2.80;99.90
20366;DHT22;10341;49.894;8.822;2023-04-03T03:03:37;2.70;99.90
20366;DHT22;10341;49.894;8.822;2023-04-03T03:08:57;2.70;99.90
20366;DHT22;10341;49.894;8.822;2023-04-03T03:14:16;2.60;99.90
20366;DHT22;10341;49.894;8.822;2023-04-03T03:19:36;2.60;99.90
20366;DHT22;10341;49.894;8.822;2023-04-03T03:24:55;2.70;99.90
20366;DHT22;10341;49.894;8.822;2023-04-03T03:30:15;2.70;99.90
20366;DHT22;10341;49.894;8.822;2023-04-03T03:35:34;2.80;99.90
20366;DHT22;10341;49.894;8.822;2023-04-03T03:40:55;2.90;99.90
20366;DHT22;10341;49.894;8.822;2023-04-03T03:46:16;3.00;99.90
20366;DHT22;10341;49.894;8.822;2023-04-03T03:51:37;3.10;99.90
20366;DHT22;10341;49.894;8.822;2023-04-03T03:56:59;3.20;99.90
20366;DHT22;10341;49.894;8.822;2023-04-03T04:02:19;3.30;99.90
20366;DHT22;10341;49.894;8.822;2023-04-03T04:07:38;3.50;99.90
20366;DHT22;10341;49.894;8.822;2023-04-03T04:12:58;3.50;99.90
20366;DHT22;10341;49.894;8.822;2023-04-03T04:18:20;3.50;99.90
20366;DHT22;10341;49.894;8.822;2023-04-03T04:23:42;3.60;99.90
20366;DHT22;10341;49.894;8.822;2023-04-03T04:29:01;3.60;99.90
20366;DHT22;10341;49.894;8.822;2023-04-03T04:34:24;3.60;99.90
20366;DHT22;10341;49.894;8.822;2023-04-03T04:39:44;3.70;99.90
20366;DHT22;10341;49.894;8.822;2023-04-03T04:45:03;3.70;99.90
20366;DHT22;10341;49.894;8.822;2023-04-03T04:50:23;3.60;99.90
20366;DHT22;10341;49.894;8.822;2023-04-03T04:55:43;3.60;99.90
20366;DHT22;10341;49.894;8.822;2023-04-03T05:01:04;3.50;99.90
20366;DHT22;10341;49.894;8.822;2023-04-03T05:06:26;3.50;99.90
20366;DHT22;10341;49.894;8.822;2023-04-03T05:11:47;3.50;99.90
20366;DHT22;10341;49.894;8.822;2023-04-03T05:17:09;3.50;99.90
20366;DHT22;10341;49.894;8.822;2023-04-03T05:22:33;3.50;99.90
20366;DHT22;10341;49.894;8.822;2023-04-03T05:27:58;3.50;99.90
20366;DHT22;10341;49.894;8.822;2023-04-03T05:33:17;3.60;99.90
20366;DHT22;10341;49.894;8.822;2023-04-03T05:38:41;3.60;99.90
20366;DHT22;10341;49.894;8.822;2023-04-03T05:44:01;3.70;99.90
20366;DHT22;10341;49.894;8.822;2023-04-03T05:49:20;3.80;99.90
20366;DHT22;10341;49.894;8.822;2023-04-03T05:54:40;3.90;99.90
20366;DHT22;10341;49.894;8.822;2023-04-03T06:00:08;3.90;99.90
20366;DHT22;10341;49.894;8.822;2023-04-03T06:05:38;3.90;99.90
20366;DHT22;10341;49.894;8.822;2023-04-03T06:10:58;4.00;99.90
20366;DHT22;10341;49.894;8.822;2023-04-03T06:16:18;4.20;99.90
20366;DHT22;10341;49.894;8.822;2023-04-03T06:21:38;4.40;99.90
20366;DHT22;10341;49.894;8.822;2023-04-03T06:26:58;4.50;99.90
20366;DHT22;10341;49.894;8.822;2023-04-03T06:32:17;4.50;99.90
20366;DHT22;10341;49.894;8.822;2023-04-03T06:37:37;4.80;99.90
20366;DHT22;10341;49.894;8.822;2023-04-03T06:42:56;5.30;99.90
20366;DHT22;10341;49.894;8.822;2023-04-03T06:48:16;5.80;99.90
20366;DHT22;10341;49.894;8.822;2023-04-03T06:53:36;6.10;99.90
20366;DHT22;10341;49.894;8.822;2023-04-03T06:58:56;6.20;99.90
20366;DHT22;10341;49.894;8.822;2023-04-03T07:04:17;6.50;99.90
20366;DHT22;10341;49.894;8.822;2023-04-03T07:09:36;6.90;99.90
20366;DHT22;10341;49.894;8.822;2023-04-03T07:14:55;7.40;99.90
20366;DHT22;10341;49.894;8.822;2023-04-03T07:20:14;8.10;99.90
20366;DHT22;10341;49.894;8.822;2023-04-03T07:25:34;8.40;99.90
20366;DHT22;10341;49.894;8.822;2023-04-03T07:31:05;8.70;99.90
20366;DHT22;10341;49.894;8.822;2023-04-03T07:36:27;9.20;99.90
20366;DHT22;10341;49.894;8.822;2023-04-03T07:41:47;9.50;99.90
20366;DHT22;10341;49.894;8.822;2023-04-03T07:47:06;9.10;99.90
20366;DHT22;10341;49.894;8.822;2023-04-03T07:52:26;9.70;99.90
20366;DHT22;10341;49.894;8.822;2023-04-03T07:57:45;10.50;99.90
20366;DHT22;10341;49.894;8.822;2023-04-03T08:03:06;10.50;99.90
20366;DHT22;10341;49.894;8.822;2023-04-03T08:08:25;10.70;99.90
20366;DHT22;10341;49.894;8.822;2023-04-03T08:13:45;10.60;99.90
20366;DHT22;10341;49.894;8.822;2023-04-03T08:19:05;10.70;99.90
20366;DHT22;10341;49.894;8.822;2023-04-03T08:24:25;11.50;98.90
20366;DHT22;10341;49.894;8.822;2023-04-03T08:29:45;12.90;97.10
20366;DHT22;10341;49.894;8.822;2023-04-03T08:35:05;15.00;95.00
20366;DHT22;10341;49.894;8.822;2023-04-03T08:40:25;16.30;90.70
20366;DHT22;10341;49.894;8.822;2023-04-03T08:45:45;15.50;89.50
20366;DHT22;10341;49.894;8.822;2023-04-03T08:51:15;11.70;94.10
20366;DHT22;10341;49.894;8.822;2023-04-03T08:56:35;10.70;96.30
20366;DHT22;10341;49.894;8.822;2023-04-03T09:01:56;9.50;98.40
20366;DHT22;10341;49.894;8.822;2023-04-03T09:07:31;9.30;98.30
20366;DHT22;10341;49.894;8.822;2023-04-03T09:13:04;10.40;98.30
20366;DHT22;10341;49.894;8.822;2023-04-03T09:18:33;13.60;92.40
20366;DHT22;10341;49.894;8.822;2023-04-03T09:23:58;16.20;86.30
20366;DHT22;10341;49.894;8.822;2023-04-03T09:29:20;16.70;81.60
20366;DHT22;10341;49.894;8.822;2023-04-03T09:34:41;18.70;77.70
20366;DHT22;10341;49.894;8.822;2023-04-03T09:40:03;20.10;74.70
20366;DHT22;10341;49.894;8.822;2023-04-03T09:45:34;18.60;73.80
20366;DHT22;10341;49.894;8.822;2023-04-03T09:50:57;15.50;81.50
20366;DHT22;10341;49.894;8.822;2023-04-03T09:56:30;14.80;83.70
20366;DHT22;10341;49.894;8.822;2023-04-03T10:02:04;13.30;85.70
20366;DHT22;10341;49.894;8.822;2023-04-03T10:07:35;15.80;82.40
20366;DHT22;10341;49.894;8.822;2023-04-03T10:13:17;17.80;77.20
20366;DHT22;10341;49.894;8.822;2023-04-03T10:24:36;17.80;72.60
20366;DHT22;10341;49.894;8.822;2023-04-03T10:36:05;18.10;72.70
20366;DHT22;10341;49.894;8.822;2023-04-03T10:47:20;15.80;77.40
20366;DHT22;10341;49.894;8.822;2023-04-03T10:58:33;14.70;79.80
20366;DHT22;10341;49.894;8.822;2023-04-03T11:03:57;14.30;80.30
20366;DHT22;10341;49.894;8.822;2023-04-03T11:09:24;13.90;81.80
20366;DHT22;10341;49.894;8.822;2023-04-03T11:14:47;13.90;82.20
20366;DHT22;10341;49.894;8.822;2023-04-03T11:20:18;13.60;81.10
20366;DHT22;10341;49.894;8.822;2023-04-03T11:25:40;17.90;75.90
20366;DHT22;10341;49.894;8.822;2023-04-03T11:31:12;19.00;69.40
20366;DHT22;10341;49.894;8.822;2023-04-03T11:36:56;19.20;70.10
20366;DHT22;10341;49.894;8.822;2023-04-03T11:47:56;21.80;65.00
20366;DHT22;10341;49.894;8.822;2023-04-03T11:58:36;19.80;65.30
20366;DHT22;10341;49.894;8.822;2023-04-03T12:03:58;21.50;58.80
20366;DHT22;10341;49.894;8.822;2023-04-03T12:14:43;18.50;59.30
20366;DHT22;10341;49.894;8.822;2023-04-03T12:26:20;17.10;63.50
20366;DHT22;10341;49.894;8.822;2023-04-03T12:43:29;14.90;62.60
20366;DHT22;10341;49.894;8.822;2023-04-03T12:48:56;16.10;59.80
20366;DHT22;10341;49.894;8.822;2023-04-03T12:54:22;17.60;57.60
20366;DHT22;10341;49.894;8.822;2023-04-03T12:59:46;18.80;57.10
20366;DHT22;10341;49.894;8.822;2023-04-03T13:05:08;19.70;55.30
20366;DHT22;10341;49.894;8.822;2023-04-03T13:10:29;19.70;55.00
20366;DHT22;10341;49.894;8.822;2023-04-03T13:15:50;19.50;52.70
20366;DHT22;10341;49.894;8.822;2023-04-03T13:21:22;19.10;56.40
20366;DHT22;10341;49.894;8.822;2023-04-03T13:26:42;18.60;56.80
20366;DHT22;10341;49.894;8.822;2023-04-03T13:32:04;19.60;55.10
20366;DHT22;10341;49.894;8.822;2023-04-03T13:37:28;17.40;59.00
20366;DHT22;10341;49.894;8.822;2023-04-03T13:42:58;18.30;56.40
20366;DHT22;10341;49.894;8.822;2023-04-03T13:48:19;18.50;56.80
20366;DHT22;10341;49.894;8.822;2023-04-03T14:04:46;18.80;55.90
20366;DHT22;10341;49.894;8.822;2023-04-03T14:10:07;17.60;59.30
20366;DHT22;10341;49.894;8.822;2023-04-03T14:15:27;18.10;59.60
20366;DHT22;10341;49.894;8.822;2023-04-03T14:20:48;19.10;57.20
20366;DHT22;10341;49.894;8.822;2023-04-03T14:26:14;19.60;57.40
20366;DHT22;10341;49.894;8.822;2023-04-03T14:31:35;20.00;56.10
20366;DHT22;10341;49.894;8.822;2023-04-03T14:36:55;18.00;56.80
20366;DHT22;10341;49.894;8.822;2023-04-03T14:42:21;17.70;57.00
20366;DHT22;10341;49.894;8.822;2023-04-03T14:47:52;19.40;57.40
20366;DHT22;10341;49.894;8.822;2023-04-03T14:53:13;19.90;54.90
20366;DHT22;10341;49.894;8.822;2023-04-03T14:58:33;18.80;56.30
20366;DHT22;10341;49.894;8.822;2023-04-03T15:03:55;16.50;58.60
20366;DHT22;10341;49.894;8.822;2023-04-03T15:09:23;15.80;61.90
20366;DHT22;10341;49.894;8.822;2023-04-03T15:14:43;17.70;59.30
20366;DHT22;10341;49.894;8.822;2023-04-03T15:20:06;18.90;57.80
20366;DHT22;10341;49.894;8.822;2023-04-03T15:25:31;18.80;55.70
20366;DHT22;10341;49.894;8.822;2023-04-03T15:30:51;19.00;56.70
20366;DHT22;10341;49.894;8.822;2023-04-03T15:36:11;18.40;56.10
20366;DHT22;10341;49.894;8.822;2023-04-03T15:41:30;15.80;59.70
20366;DHT22;10341;49.894;8.822;2023-04-03T15:46:50;16.80;59.60
20366;DHT22;10341;49.894;8.822;2023-04-03T15:52:10;16.80;61.10
20366;DHT22;10341;49.894;8.822;2023-04-03T15:57:30;16.20;60.80
20366;DHT22;10341;49.894;8.822;2023-04-03T16:02:53;15.90;61.00
20366;DHT22;10341;49.894;8.822;2023-04-03T16:08:13;15.70;62.40
20366;DHT22;10341;49.894;8.822;2023-04-03T16:13:33;16.00;60.90
20366;DHT22;10341;49.894;8.822;2023-04-03T16:18:54;16.50;61.20
20366;DHT22;10341;49.894;8.822;2023-04-03T16:24:14;16.60;60.50
20366;DHT22;10341;49.894;8.822;2023-04-03T16:29:33;16.60;60.80
20366;DHT22;10341;49.894;8.822;2023-04-03T16:34:53;15.60;60.80
20366;DHT22;10341;49.894;8.822;2023-04-03T16:40:13;15.10;64.10
20366;DHT22;10341;49.894;8.822;2023-04-03T16:45:32;15.30;62.10
20366;DHT22;10341;49.894;8.822;2023-04-03T16:50:52;15.30;62.20
20366;DHT22;10341;49.894;8.822;2023-04-03T16:56:12;14.90;62.40
20366;DHT22;10341;49.894;8.822;2023-04-03T17:01:32;14.10;64.10
20366;DHT22;10341;49.894;8.822;2023-04-03T17:06:51;14.10;65.20
20366;DHT22;10341;49.894;8.822;2023-04-03T17:12:11;14.00;64.50
20366;DHT22;10341;49.894;8.822;2023-04-03T17:17:31;13.00;66.10
20366;DHT22;10341;49.894;8.822;2023-04-03T17:22:51;12.40;68.20
20366;DHT22;10341;49.894;8.822;2023-04-03T17:28:10;11.70;69.80
20366;DHT22;10341;49.894;8.822;2023-04-03T17:33:30;10.70;72.00
20366;DHT22;10341;49.894;8.822;2023-04-03T17:38:50;9.80;74.20
20366;DHT22;10341;49.894;8.822;2023-04-03T17:44:10;9.10;74.90
20366;DHT22;10341;49.894;8.822;2023-04-03T17:49:29;8.40;77.20
20366;DHT22;10341;49.894;8.822;2023-04-03T17:54:49;7.80;79.80
20366;DHT22;10341;49.894;8.822;2023-04-03T18:00:09;7.40;81.10
20366;DHT22;10341;49.894;8.822;2023-04-03T18:05:32;7.10;82.40
20366;DHT22;10341;49.894;8.822;2023-04-03T18:10:52;6.70;83.30
20366;DHT22;10341;49.894;8.822;2023-04-03T18:16:12;6.50;84.50
20366;DHT22;10341;49.894;8.822;2023-04-03T18:21:37;6.20;86.60
20366;DHT22;10341;49.894;8.822;2023-04-03T18:27:03;6.10;88.00
20366;DHT22;10341;49.894;8.822;2023-04-03T18:32:24;5.90;88.30
20366;DHT22;10341;49.894;8.822;2023-04-03T18:37:44;5.80;89.90
20366;DHT22;10341;49.894;8.822;2023-04-03T18:43:03;5.60;90.60
20366;DHT22;10341;49.894;8.822;2023-04-03T18:48:22;5.40;91.10
20366;DHT22;10341;49.894;8.822;2023-04-03T18:53:42;5.20;92.00
20366;DHT22;10341;49.894;8.822;2023-04-03T18:59:02;5.10;92.50
20366;DHT22;10341;49.894;8.822;2023-04-03T19:04:22;5.00;93.00
20366;DHT22;10341;49.894;8.822;2023-04-03T19:09:41;4.90;93.30
20366;DHT22;10341;49.894;8.822;2023-04-03T19:15:01;4.80;94.00
20366;DHT22;10341;49.894;8.822;2023-04-03T19:20:21;4.60;94.50
20366;DHT22;10341;49.894;8.822;2023-04-03T19:25:40;4.40;95.60
20366;DHT22;10341;49.894;8.822;2023-04-03T19:31:00;4.30;96.80
20366;DHT22;10341;49.894;8.822;2023-04-03T19:36:20;4.20;97.10
20366;DHT22;10341;49.894;8.822;2023-04-03T19:41:40;4.10;98.40
20366;DHT22;10341;49.894;8.822;2023-04-03T19:47:01;3.90;99.30
20366;DHT22;10341;49.894;8.822;2023-04-03T19:52:21;3.80;99.50
20366;DHT22;10341;49.894;8.822;2023-04-03T19:57:40;3.70;99.90
20366;DHT22;10341;49.894;8.822;2023-04-03T20:02:59;3.60;99.90
20366;DHT22;10341;49.894;8.822;2023-04-03T20:08:19;3.40;99.90
20366;DHT22;10341;49.894;8.822;2023-04-03T20:13:39;3.40;99.90
20366;DHT22;10341;49.894;8.822;2023-04-03T20:18:58;3.40;99.90
20366;DHT22;10341;49.894;8.822;2023-04-03T20:24:18;3.20;99.90
20366;DHT22;10341;49.894;8.822;2023-04-03T20:29:37;3.20;99.90
20366;DHT22;10341;49.894;8.822;2023-04-03T20:34:58;3.10;99.90
20366;DHT22;10341;49.894;8.822;2023-04-03T20:40:17;3.00;99.90
20366;DHT22;10341;49.894;8.822;2023-04-03T20:45:37;2.90;99.90
20366;DHT22;10341;49.894;8.822;2023-04-03T20:50:57;2.80;99.90
20366;DHT22;10341;49.894;8.822;2023-04-03T20:56:17;2.80;99.90
20366;DHT22;10341;49.894;8.822;2023-04-03T21:01:36;2.70;99.90
20366;DHT22;10341;49.894;8.822;2023-04-03T21:19:13;2.50;99.90
20366;DHT22;10341;49.894;8.822;2023-04-03T21:24:35;2.40;99.90
20366;DHT22;10341;49.894;8.822;2023-04-03T21:29:55;2.30;99.90
20366;DHT22;10341;49.894;8.822;2023-04-03T21:35:14;2.30;99.90
20366;DHT22;10341;49.894;8.822;2023-04-03T21:40:34;2.20;99.90
20366;DHT22;10341;49.894;8.822;2023-04-03T21:45:53;2.10;99.90
20366;DHT22;10341;49.894;8.822;2023-04-03T21:51:14;2.00;99.90
20366;DHT22;10341;49.894;8.822;2023-04-03T21:56:34;1.90;99.90
20366;DHT22;10341;49.894;8.822;2023-04-03T22:01:53;1.80;99.90
20366;DHT22;10341;49.894;8.822;2023-04-03T22:07:13;1.70;99.90
20366;DHT22;10341;49.894;8.822;2023-04-03T22:12:33;1.60;99.90
20366;DHT22;10341;49.894;8.822;2023-04-03T22:17:52;1.50;99.90
20366;DHT22;10341;49.894;8.822;2023-04-03T22:23:12;1.40;99.90
20366;DHT22;10341;49.894;8.822;2023-04-03T22:28:32;1.30;99.90
20366;DHT22;10341;49.894;8.822;2023-04-03T22:33:52;1.30;99.90
20366;DHT22;10341;49.894;8.822;2023-04-03T22:39:13;1.20;99.90
20366;DHT22;10341;49.894;8.822;2023-04-03T22:44:34;1.10;99.90
20366;DHT22;10341;49.894;8.822;2023-04-03T22:49:54;0.90;99.90
20366;DHT22;10341;49.894;8.822;2023-04-03T22:55:13;0.90;99.90
20366;DHT22;10341;49.894;8.822;2023-04-03T23:00:33;0.90;99.90
20366;DHT22;10341;49.894;8.822;2023-04-03T23:05:52;0.80;99.90
20366;DHT22;10341;49.894;8.822;2023-04-03T23:11:11;0.80;99.90
20366;DHT22;10341;49.894;8.822;2023-04-03T23:16:31;0.70;99.90
20366;DHT22;10341;49.894;8.822;2023-04-03T23:21:51;0.60;99.90
20366;DHT22;10341;49.894;8.822;2023-04-03T23:27:10;0.50;99.90
20366;DHT22;10341;49.894;8.822;2023-04-03T23:32:29;0.40;99.90
20366;DHT22;10341;49.894;8.822;2023-04-03T23:37:49;0.40;99.90
20366;DHT22;10341;49.894;8.822;2023-04-03T23:43:09;0.30;99.90
20366;DHT22;10341;49.894;8.822;2023-04-03T23:48:29;0.20;99.90
20366;DHT22;10341;49.894;8.822;2023-04-03T23:53:48;0.10;99.90
20366;DHT22;10341;49.894;8.822;2023-04-03T23:59:07;0.00;99.90
